sensor_id;sensor_type;location;lat;lon;timestamp;pressure;altitude;pressure_sealevel;temperature;humidity
78229;BME280;74448;49.082;9.152;2024-01-30T00:01:02;100722.09;;;6.68;59.95
78229;BME280;74448;49.082;9.152;2024-01-30T00:03:29;100723.00;;;6.67;59.79
78229;BME280;74448;49.082;9.152;2024-01-30T00:05:56;100707.50;;;6.61;59.98
78229;BME280;74448;49.082;9.152;2024-01-30T00:08:26;100716.97;;;6.65;60.38
78229;BME280;74448;49.082;9.152;2024-01-30T00:10:52;100718.78;;;6.63;60.26
78229;BME280;74448;49.082;9.152;2024-01-30T00:13:19;100710.06;;;6.62;59.97
78229;BME280;74448;49.082;9.152;2024-01-30T00:15:46;100724.03;;;6.63;59.83
78229;BME280;74448;49.082;9.152;2024-01-30T00:18:13;100719.72;;;6.62;59.99
78229;BME280;74448;49.082;9.152;2024-01-30T00:20:40;100725.81;;;6.62;59.93
78229;BME280;74448;49.082;9.152;2024-01-30T00:23:06;100721.53;;;6.60;59.69
78229;BME280;74448;49.082;9.152;2024-01-30T00:25:33;100731.16;;;6.61;60.26
78229;BME280;74448;49.082;9.152;2024-01-30T00:27:59;100722.44;;;6.59;59.82
78229;BME280;74448;49.082;9.152;2024-01-30T00:30:26;100728.63;;;6.58;60.04
78229;BME280;74448;49.082;9.152;2024-01-30T00:32:53;100719.22;;;6.52;59.75
78229;BME280;74448;49.082;9.152;2024-01-30T00:35:20;100722.63;;;6.54;60.69
78229;BME280;74448;49.082;9.152;2024-01-30T00:37:48;100718.28;;;6.53;60.78
78229;BME280;74448;49.082;9.152;2024-01-30T00:40:15;100727.03;;;6.54;60.07
78229;BME280;74448;49.082;9.152;2024-01-30T00:42:42;100728.81;;;6.53;60.01
78229;BME280;74448;49.082;9.152;2024-01-30T00:45:14;100734.22;;;6.48;59.94
78229;BME280;74448;49.082;9.152;2024-01-30T00:47:41;100736.72;;;6.52;60.54
78229;BME280;74448;49.082;9.152;2024-01-30T00:50:07;100736.78;;;6.50;59.83
78229;BME280;74448;49.082;9.152;2024-01-30T00:52:34;100728.13;;;6.48;60.03
78229;BME280;74448;49.082;9.152;2024-01-30T00:55:01;100735.94;;;6.49;60.82
78229;BME280;74448;49.082;9.152;2024-01-30T00:57:28;100733.38;;;6.48;59.58
78229;BME280;74448;49.082;9.152;2024-01-30T00:59:54;100727.31;;;6.46;60.05
78229;BME280;74448;49.082;9.152;2024-01-30T01:02:21;100727.38;;;6.44;60.05
78229;BME280;74448;49.082;9.152;2024-01-30T01:04:47;100718.69;;;6.42;60.65
78229;BME280;74448;49.082;9.152;2024-01-30T01:07:16;100726.53;;;6.44;60.03
78229;BME280;74448;49.082;9.152;2024-01-30T01:09:43;100721.31;;;6.42;60.93
78229;BME280;74448;49.082;9.152;2024-01-30T01:12:09;100722.22;;;6.41;60.49
78229;BME280;74448;49.082;9.152;2024-01-30T01:14:36;100723.16;;;6.40;60.53
78229;BME280;74448;49.082;9.152;2024-01-30T01:17:02;100732.72;;;6.41;60.14
78229;BME280;74448;49.082;9.152;2024-01-30T01:19:29;100712.94;;;6.33;60.12
78229;BME280;74448;49.082;9.152;2024-01-30T01:21:56;100732.84;;;6.38;60.15
78229;BME280;74448;49.082;9.152;2024-01-30T01:24:23;100733.75;;;6.37;60.36
78229;BME280;74448;49.082;9.152;2024-01-30T01:26:50;100734.69;;;6.36;60.77
78229;BME280;74448;49.082;9.152;2024-01-30T01:29:17;100732.09;;;6.35;60.71
78229;BME280;74448;49.082;9.152;2024-01-30T01:31:44;100732.09;;;6.35;60.21
78229;BME280;74448;49.082;9.152;2024-01-30T01:34:11;100729.53;;;6.33;60.12
78229;BME280;74448;49.082;9.152;2024-01-30T01:36:38;100735.69;;;6.32;60.07
78229;BME280;74448;49.082;9.152;2024-01-30T01:39:05;100740.09;;;6.32;60.73
78229;BME280;74448;49.082;9.152;2024-01-30T01:41:32;100736.63;;;6.31;60.58
78229;BME280;74448;49.082;9.152;2024-01-30T01:44:00;100729.88;;;6.24;60.42
78229;BME280;74448;49.082;9.152;2024-01-30T01:46:27;100734.03;;;6.30;60.60
78229;BME280;74448;49.082;9.152;2024-01-30T01:48:56;100743.69;;;6.29;60.23
78229;BME280;74448;49.082;9.152;2024-01-30T01:51:26;100734.09;;;6.28;60.57
78229;BME280;74448;49.082;9.152;2024-01-30T01:53:54;100733.19;;;6.29;60.46
78229;BME280;74448;49.082;9.152;2024-01-30T01:56:23;100729.78;;;6.27;60.08
78229;BME280;74448;49.082;9.152;2024-01-30T01:58:51;100733.28;;;6.26;61.16
78229;BME280;74448;49.082;9.152;2024-01-30T02:01:20;100730.78;;;6.23;60.38
78229;BME280;74448;49.082;9.152;2024-01-30T02:03:47;100727.28;;;6.22;60.75
78229;BME280;74448;49.082;9.152;2024-01-30T02:06:14;100724.81;;;6.18;60.70
78229;BME280;74448;49.082;9.152;2024-01-30T02:08:41;100737.84;;;6.21;60.17
78229;BME280;74448;49.082;9.152;2024-01-30T02:11:08;100724.72;;;6.21;61.24
78229;BME280;74448;49.082;9.152;2024-01-30T02:13:36;100725.69;;;6.18;61.21
78229;BME280;74448;49.082;9.152;2024-01-30T02:16:03;100732.69;;;6.18;60.30
78229;BME280;74448;49.082;9.152;2024-01-30T02:18:30;100733.63;;;6.17;60.54
78229;BME280;74448;49.082;9.152;2024-01-30T02:20:58;100729.28;;;6.16;61.05
78229;BME280;74448;49.082;9.152;2024-01-30T02:23:25;100740.66;;;6.16;60.22
78229;BME280;74448;49.082;9.152;2024-01-30T02:25:52;100734.53;;;6.16;60.99
78229;BME280;74448;49.082;9.152;2024-01-30T02:28:19;100731.06;;;6.15;60.50
78229;BME280;74448;49.082;9.152;2024-01-30T02:30:46;100721.53;;;6.13;60.48
78229;BME280;74448;49.082;9.152;2024-01-30T02:33:13;100729.31;;;6.14;59.99
78229;BME280;74448;49.082;9.152;2024-01-30T02:35:40;100731.16;;;6.12;61.06
78229;BME280;74448;49.082;9.152;2024-01-30T02:38:06;100725.09;;;6.10;60.49
78229;BME280;74448;49.082;9.152;2024-01-30T02:40:33;100725.09;;;6.10;60.58
78229;BME280;74448;49.082;9.152;2024-01-30T02:43:02;100730.41;;;6.09;61.40
78229;BME280;74448;49.082;9.152;2024-01-30T02:45:29;100733.97;;;6.08;60.67
78229;BME280;74448;49.082;9.152;2024-01-30T02:47:56;100731.34;;;6.08;60.19
78229;BME280;74448;49.082;9.152;2024-01-30T02:50:22;100723.63;;;6.03;60.87
78229;BME280;74448;49.082;9.152;2024-01-30T02:52:49;100724.38;;;6.07;60.59
78229;BME280;74448;49.082;9.152;2024-01-30T02:55:16;100726.16;;;6.06;60.49
78229;BME280;74448;49.082;9.152;2024-01-30T02:57:45;100731.44;;;6.05;61.19
78229;BME280;74448;49.082;9.152;2024-01-30T03:00:12;100722.72;;;6.04;60.92
78229;BME280;74448;49.082;9.152;2024-01-30T03:02:39;100719.34;;;6.01;60.55
78229;BME280;74448;49.082;9.152;2024-01-30T03:05:07;100725.41;;;6.03;60.42
78229;BME280;74448;49.082;9.152;2024-01-30T03:07:34;100720.19;;;6.01;60.58
78229;BME280;74448;49.082;9.152;2024-01-30T03:10:01;100719.34;;;6.01;61.35
78229;BME280;74448;49.082;9.152;2024-01-30T03:12:27;100728.97;;;6.00;60.61
78229;BME280;74448;49.082;9.152;2024-01-30T03:14:54;100719.44;;;5.97;61.13
78229;BME280;74448;49.082;9.152;2024-01-30T03:17:20;100722.06;;;5.97;61.03
78229;BME280;74448;49.082;9.152;2024-01-30T03:19:47;100726.44;;;5.97;60.71
78229;BME280;74448;49.082;9.152;2024-01-30T03:22:14;100727.38;;;5.96;60.31
78229;BME280;74448;49.082;9.152;2024-01-30T03:24:40;100723.88;;;5.95;61.23
78229;BME280;74448;49.082;9.152;2024-01-30T03:27:08;100724.81;;;5.94;61.13
78229;BME280;74448;49.082;9.152;2024-01-30T03:29:34;100709.28;;;5.87;61.16
78229;BME280;74448;49.082;9.152;2024-01-30T03:32:01;100724.84;;;5.93;61.05
78229;BME280;74448;49.082;9.152;2024-01-30T03:34:28;100730.94;;;5.93;60.65
78229;BME280;74448;49.082;9.152;2024-01-30T03:36:54;100715.25;;;5.92;61.05
78229;BME280;74448;49.082;9.152;2024-01-30T03:39:21;100730.13;;;5.91;61.18
78229;BME280;74448;49.082;9.152;2024-01-30T03:41:48;100724.03;;;5.91;61.03
78229;BME280;74448;49.082;9.152;2024-01-30T03:44:14;100731.94;;;5.89;61.61
78229;BME280;74448;49.082;9.152;2024-01-30T03:46:41;100731.13;;;5.87;60.74
78229;BME280;74448;49.082;9.152;2024-01-30T03:49:07;100730.34;;;5.85;61.08
78229;BME280;74448;49.082;9.152;2024-01-30T03:51:34;100722.56;;;5.82;61.12
78229;BME280;74448;49.082;9.152;2024-01-30T03:54:01;100732.97;;;5.85;61.00
78229;BME280;74448;49.082;9.152;2024-01-30T03:56:27;100725.09;;;5.85;60.75
78229;BME280;74448;49.082;9.152;2024-01-30T03:58:54;100728.69;;;5.83;60.75
78229;BME280;74448;49.082;9.152;2024-01-30T04:01:21;100728.69;;;5.83;61.71
78229;BME280;74448;49.082;9.152;2024-01-30T04:03:47;100724.34;;;5.82;60.87
78229;BME280;74448;49.082;9.152;2024-01-30T04:06:14;100726.13;;;5.81;60.88
78229;BME280;74448;49.082;9.152;2024-01-30T04:08:41;100722.69;;;5.79;60.92
78229;BME280;74448;49.082;9.152;2024-01-30T04:11:08;100718.50;;;5.73;60.94
78229;BME280;74448;49.082;9.152;2024-01-30T04:13:34;100692.72;;;5.60;61.05
78229;BME280;74448;49.082;9.152;2024-01-30T04:16:02;100725.41;;;5.76;61.09
78229;BME280;74448;49.082;9.152;2024-01-30T04:18:29;100724.53;;;5.75;61.35
78229;BME280;74448;49.082;9.152;2024-01-30T04:20:56;100693.72;;;5.57;61.73
78229;BME280;74448;49.082;9.152;2024-01-30T04:23:23;100716.78;;;5.72;60.72
78229;BME280;74448;49.082;9.152;2024-01-30T04:25:49;100716.84;;;5.71;60.83
78229;BME280;74448;49.082;9.152;2024-01-30T04:28:16;100718.59;;;5.70;61.73
78229;BME280;74448;49.082;9.152;2024-01-30T04:30:42;100700.50;;;5.63;61.57
78229;BME280;74448;49.082;9.152;2024-01-30T04:33:10;100717.75;;;5.70;61.35
78229;BME280;74448;49.082;9.152;2024-01-30T04:35:37;100724.78;;;5.69;61.29
78229;BME280;74448;49.082;9.152;2024-01-30T04:38:03;100724.81;;;5.68;60.85
78229;BME280;74448;49.082;9.152;2024-01-30T04:40:30;100724.81;;;5.68;61.56
78229;BME280;74448;49.082;9.152;2024-01-30T04:42:56;100727.50;;;5.66;60.99
78229;BME280;74448;49.082;9.152;2024-01-30T04:45:23;100721.38;;;5.66;61.80
78229;BME280;74448;49.082;9.152;2024-01-30T04:47:50;100724.06;;;5.64;61.38
78229;BME280;74448;49.082;9.152;2024-01-30T04:50:16;100727.59;;;5.63;61.20
78229;BME280;74448;49.082;9.152;2024-01-30T04:52:43;100725.03;;;5.62;61.46
78229;BME280;74448;49.082;9.152;2024-01-30T04:55:09;100727.66;;;5.62;60.94
78229;BME280;74448;49.082;9.152;2024-01-30T04:57:36;100727.72;;;5.60;61.03
78229;BME280;74448;49.082;9.152;2024-01-30T05:00:03;100729.50;;;5.58;61.91
78229;BME280;74448;49.082;9.152;2024-01-30T05:02:30;100733.91;;;5.58;61.45
78229;BME280;74448;49.082;9.152;2024-01-30T05:04:56;100733.91;;;5.58;61.75
78229;BME280;74448;49.082;9.152;2024-01-30T05:07:25;100737.44;;;5.57;60.97
78229;BME280;74448;49.082;9.152;2024-01-30T05:09:52;100734.81;;;5.57;61.37
78229;BME280;74448;49.082;9.152;2024-01-30T05:12:22;100734.00;;;5.55;61.59
78229;BME280;74448;49.082;9.152;2024-01-30T05:14:49;100738.31;;;5.56;61.04
78229;BME280;74448;49.082;9.152;2024-01-30T05:17:15;100734.91;;;5.54;61.53
78229;BME280;74448;49.082;9.152;2024-01-30T05:19:43;100738.38;;;5.54;61.58
78229;BME280;74448;49.082;9.152;2024-01-30T05:22:10;100733.22;;;5.51;61.44
78229;BME280;74448;49.082;9.152;2024-01-30T05:24:37;100737.63;;;5.50;61.87
78229;BME280;74448;49.082;9.152;2024-01-30T05:27:04;100747.19;;;5.52;61.69
78229;BME280;74448;49.082;9.152;2024-01-30T05:29:30;100748.97;;;5.51;61.41
78229;BME280;74448;49.082;9.152;2024-01-30T05:31:57;100748.13;;;5.50;61.23
78229;BME280;74448;49.082;9.152;2024-01-30T05:34:23;100748.13;;;5.50;61.16
78229;BME280;74448;49.082;9.152;2024-01-30T05:36:50;100756.03;;;5.49;61.88
78229;BME280;74448;49.082;9.152;2024-01-30T05:39:17;100743.09;;;5.44;61.56
78229;BME280;74448;49.082;9.152;2024-01-30T05:41:43;100750.84;;;5.47;61.80
78229;BME280;74448;49.082;9.152;2024-01-30T05:44:10;100752.56;;;5.48;61.38
78229;BME280;74448;49.082;9.152;2024-01-30T05:46:36;100750.91;;;5.46;61.05
78229;BME280;74448;49.082;9.152;2024-01-30T05:49:03;100748.34;;;5.44;61.97
78229;BME280;74448;49.082;9.152;2024-01-30T05:51:30;100753.56;;;5.44;61.34
78229;BME280;74448;49.082;9.152;2024-01-30T05:53:56;100752.66;;;5.45;61.87
78229;BME280;74448;49.082;9.152;2024-01-30T05:56:23;100757.00;;;5.46;61.74
78229;BME280;74448;49.082;9.152;2024-01-30T05:58:50;100770.16;;;5.45;61.49
78229;BME280;74448;49.082;9.152;2024-01-30T06:01:17;100761.47;;;5.43;61.50
78229;BME280;74448;49.082;9.152;2024-01-30T06:03:44;100769.41;;;5.41;61.68
78229;BME280;74448;49.082;9.152;2024-01-30T06:06:10;100769.34;;;5.43;61.99
78229;BME280;74448;49.082;9.152;2024-01-30T06:08:37;100762.34;;;5.43;61.73
78229;BME280;74448;49.082;9.152;2024-01-30T06:11:03;100745.41;;;5.27;61.50
78229;BME280;74448;49.082;9.152;2024-01-30T06:13:30;100765.00;;;5.42;61.39
78229;BME280;74448;49.082;9.152;2024-01-30T06:15:58;100761.59;;;5.40;61.42
78229;BME280;74448;49.082;9.152;2024-01-30T06:18:25;100754.59;;;5.40;61.51
78229;BME280;74448;49.082;9.152;2024-01-30T06:20:53;100758.97;;;5.40;60.89
78229;BME280;74448;49.082;9.152;2024-01-30T06:23:20;100755.50;;;5.39;61.38
78229;BME280;74448;49.082;9.152;2024-01-30T06:25:46;100751.97;;;5.40;61.71
78229;BME280;74448;49.082;9.152;2024-01-30T06:28:13;100767.72;;;5.39;61.40
78229;BME280;74448;49.082;9.152;2024-01-30T06:30:40;100752.88;;;5.39;61.25
78229;BME280;74448;49.082;9.152;2024-01-30T06:33:06;100755.38;;;5.42;61.00
78229;BME280;74448;49.082;9.152;2024-01-30T06:35:33;100759.75;;;5.42;61.15
78229;BME280;74448;49.082;9.152;2024-01-30T06:38:01;100761.53;;;5.41;61.34
78229;BME280;74448;49.082;9.152;2024-01-30T06:40:28;100760.69;;;5.41;61.24
78229;BME280;74448;49.082;9.152;2024-01-30T06:42:55;100755.50;;;5.39;61.17
78229;BME280;74448;49.082;9.152;2024-01-30T06:45:22;100754.63;;;5.39;61.10
78229;BME280;74448;49.082;9.152;2024-01-30T06:47:48;100754.72;;;5.36;61.53
78229;BME280;74448;49.082;9.152;2024-01-30T06:50:15;100762.53;;;5.37;61.62
78229;BME280;74448;49.082;9.152;2024-01-30T06:52:42;100761.69;;;5.37;61.63
78229;BME280;74448;49.082;9.152;2024-01-30T06:55:09;100760.84;;;5.36;60.57
78229;BME280;74448;49.082;9.152;2024-01-30T06:57:35;100766.88;;;5.38;60.85
78229;BME280;74448;49.082;9.152;2024-01-30T07:00:02;100768.69;;;5.36;61.19
78229;BME280;74448;49.082;9.152;2024-01-30T07:02:29;100762.53;;;5.37;61.03
78229;BME280;74448;49.082;9.152;2024-01-30T07:04:56;100766.94;;;5.37;61.05
78229;BME280;74448;49.082;9.152;2024-01-30T07:07:23;100765.38;;;5.31;61.01
78229;BME280;74448;49.082;9.152;2024-01-30T07:09:49;100772.19;;;5.37;61.66
78229;BME280;74448;49.082;9.152;2024-01-30T07:12:19;100763.53;;;5.33;60.65
78229;BME280;74448;49.082;9.152;2024-01-30T07:14:45;100768.72;;;5.35;61.58
78229;BME280;74448;49.082;9.152;2024-01-30T07:17:12;100767.09;;;5.32;61.04
78229;BME280;74448;49.082;9.152;2024-01-30T07:19:39;100765.31;;;5.33;61.53
78229;BME280;74448;49.082;9.152;2024-01-30T07:22:05;100774.03;;;5.33;60.73
78229;BME280;74448;49.082;9.152;2024-01-30T07:24:32;100768.84;;;5.32;61.30
78229;BME280;74448;49.082;9.152;2024-01-30T07:26:58;100770.56;;;5.33;60.86
78229;BME280;74448;49.082;9.152;2024-01-30T07:29:25;100771.50;;;5.30;61.55
78229;BME280;74448;49.082;9.152;2024-01-30T07:31:52;100773.25;;;5.31;60.77
78229;BME280;74448;49.082;9.152;2024-01-30T07:34:18;100768.09;;;5.28;60.63
78229;BME280;74448;49.082;9.152;2024-01-30T07:36:45;100764.78;;;5.21;61.27
78229;BME280;74448;49.082;9.152;2024-01-30T07:39:13;100775.88;;;5.30;61.71
78229;BME280;74448;49.082;9.152;2024-01-30T07:41:40;100768.09;;;5.28;60.99
78229;BME280;74448;49.082;9.152;2024-01-30T07:44:06;100765.56;;;5.25;60.92
78229;BME280;74448;49.082;9.152;2024-01-30T07:46:33;100770.72;;;5.27;61.29
78229;BME280;74448;49.082;9.152;2024-01-30T07:48:59;100764.63;;;5.26;61.55
78229;BME280;74448;49.082;9.152;2024-01-30T07:51:26;100771.00;;;5.19;61.28
78229;BME280;74448;49.082;9.152;2024-01-30T07:53:54;100767.53;;;5.18;61.26
78229;BME280;74448;49.082;9.152;2024-01-30T07:56:21;100773.56;;;5.20;61.13
78229;BME280;74448;49.082;9.152;2024-01-30T07:58:48;100777.00;;;5.22;61.00
78229;BME280;74448;49.082;9.152;2024-01-30T08:01:15;100774.38;;;5.22;60.96
78229;BME280;74448;49.082;9.152;2024-01-30T08:03:42;100769.25;;;5.18;61.54
78229;BME280;74448;49.082;9.152;2024-01-30T08:06:09;100779.66;;;5.21;61.12
78229;BME280;74448;49.082;9.152;2024-01-30T08:08:36;100775.31;;;5.20;61.72
78229;BME280;74448;49.082;9.152;2024-01-30T08:11:04;100778.88;;;5.19;61.83
78229;BME280;74448;49.082;9.152;2024-01-30T08:13:31;100780.63;;;5.18;61.60
78229;BME280;74448;49.082;9.152;2024-01-30T08:15:57;100780.63;;;5.18;61.92
78229;BME280;74448;49.082;9.152;2024-01-30T08:18:24;100773.66;;;5.17;61.31
78229;BME280;74448;49.082;9.152;2024-01-30T08:20:50;100769.31;;;5.16;61.77
78229;BME280;74448;49.082;9.152;2024-01-30T08:23:17;100780.72;;;5.15;61.42
78229;BME280;74448;49.082;9.152;2024-01-30T08:25:44;100783.44;;;5.12;61.24
78229;BME280;74448;49.082;9.152;2024-01-30T08:28:10;100785.19;;;5.12;61.83
78229;BME280;74448;49.082;9.152;2024-01-30T08:30:37;100790.38;;;5.13;61.23
78229;BME280;74448;49.082;9.152;2024-01-30T08:33:05;100799.16;;;5.12;61.76
78229;BME280;74448;49.082;9.152;2024-01-30T08:35:32;100792.19;;;5.11;61.75
78229;BME280;74448;49.082;9.152;2024-01-30T08:38:00;100792.34;;;5.07;61.46
78229;BME280;74448;49.082;9.152;2024-01-30T08:40:27;100805.34;;;5.10;61.75
78229;BME280;74448;49.082;9.152;2024-01-30T08:42:54;100797.47;;;5.10;61.97
78229;BME280;74448;49.082;9.152;2024-01-30T08:45:20;100788.75;;;5.09;62.04
78229;BME280;74448;49.082;9.152;2024-01-30T08:47:47;100788.91;;;5.05;61.76
78229;BME280;74448;49.082;9.152;2024-01-30T08:50:14;100798.44;;;5.07;61.46
78229;BME280;74448;49.082;9.152;2024-01-30T08:52:40;100802.81;;;5.07;61.88
78229;BME280;74448;49.082;9.152;2024-01-30T08:55:07;100798.47;;;5.06;61.80
78229;BME280;74448;49.082;9.152;2024-01-30T08:57:34;100783.94;;;4.95;61.50
78229;BME280;74448;49.082;9.152;2024-01-30T09:00:01;100796.75;;;5.05;62.18
78229;BME280;74448;49.082;9.152;2024-01-30T09:02:30;100787.34;;;4.99;61.44
78229;BME280;74448;49.082;9.152;2024-01-30T09:04:57;100803.91;;;4.99;61.86
78229;BME280;74448;49.082;9.152;2024-01-30T09:07:24;100798.59;;;5.03;61.83
78229;BME280;74448;49.082;9.152;2024-01-30T09:09:51;100807.31;;;5.02;61.23
78229;BME280;74448;49.082;9.152;2024-01-30T09:12:17;100797.94;;;4.94;61.29
78229;BME280;74448;49.082;9.152;2024-01-30T09:14:44;100811.72;;;5.01;61.92
78229;BME280;74448;49.082;9.152;2024-01-30T09:17:10;100811.72;;;5.01;61.55
78229;BME280;74448;49.082;9.152;2024-01-30T09:19:37;100816.09;;;5.00;61.34
78229;BME280;74448;49.082;9.152;2024-01-30T09:22:04;100811.84;;;4.96;61.80
78229;BME280;74448;49.082;9.152;2024-01-30T09:24:31;100810.84;;;5.00;61.84
78229;BME280;74448;49.082;9.152;2024-01-30T09:26:57;100814.38;;;4.99;61.60
78229;BME280;74448;49.082;9.152;2024-01-30T09:29:24;100812.63;;;5.00;62.05
78229;BME280;74448;49.082;9.152;2024-01-30T09:31:51;100814.38;;;4.99;61.95
78229;BME280;74448;49.082;9.152;2024-01-30T09:34:18;100811.91;;;4.95;62.15
78229;BME280;74448;49.082;9.152;2024-01-30T09:36:44;100815.28;;;4.98;61.50
78229;BME280;74448;49.082;9.152;2024-01-30T09:39:11;100815.31;;;4.97;62.07
78229;BME280;74448;49.082;9.152;2024-01-30T09:41:47;100809.22;;;4.96;61.20
78229;BME280;74448;49.082;9.152;2024-01-30T09:44:16;100815.31;;;4.97;61.81
78229;BME280;74448;49.082;9.152;2024-01-30T09:46:43;100806.81;;;4.90;61.94
78229;BME280;74448;49.082;9.152;2024-01-30T09:49:11;100816.28;;;4.94;61.66
78229;BME280;74448;49.082;9.152;2024-01-30T09:51:39;100822.38;;;4.95;61.98
78229;BME280;74448;49.082;9.152;2024-01-30T09:54:08;100818.91;;;4.94;61.61
78229;BME280;74448;49.082;9.152;2024-01-30T09:56:34;100818.09;;;4.92;61.44
78229;BME280;74448;49.082;9.152;2024-01-30T09:59:01;100818.00;;;4.95;62.06
78229;BME280;74448;49.082;9.152;2024-01-30T10:01:28;100818.00;;;4.95;61.79
78229;BME280;74448;49.082;9.152;2024-01-30T10:03:55;100824.22;;;4.91;61.57
78229;BME280;74448;49.082;9.152;2024-01-30T10:06:22;100824.16;;;4.94;61.53
78229;BME280;74448;49.082;9.152;2024-01-30T10:08:50;100815.53;;;4.91;61.06
78229;BME280;74448;49.082;9.152;2024-01-30T10:11:17;100823.25;;;4.95;61.78
78229;BME280;74448;49.082;9.152;2024-01-30T10:13:44;100820.69;;;4.92;62.25
78229;BME280;74448;49.082;9.152;2024-01-30T10:16:13;100821.53;;;4.94;61.38
78229;BME280;74448;49.082;9.152;2024-01-30T10:18:41;100818.91;;;4.94;61.93
78229;BME280;74448;49.082;9.152;2024-01-30T10:21:10;100824.16;;;4.94;61.70
78229;BME280;74448;49.082;9.152;2024-01-30T10:23:37;100811.06;;;4.94;61.39
78229;BME280;74448;49.082;9.152;2024-01-30T10:26:04;100806.75;;;4.92;61.89
78229;BME280;74448;49.082;9.152;2024-01-30T10:28:31;100805.81;;;4.94;61.17
78229;BME280;74448;49.082;9.152;2024-01-30T10:30:59;100811.91;;;4.95;61.16
78229;BME280;74448;49.082;9.152;2024-01-30T10:33:31;100811.97;;;4.93;61.78
78229;BME280;74448;49.082;9.152;2024-01-30T10:36:03;100808.47;;;4.93;61.96
78229;BME280;74448;49.082;9.152;2024-01-30T10:38:31;100775.78;;;4.77;61.53
78229;BME280;74448;49.082;9.152;2024-01-30T10:41:00;100803.22;;;4.93;61.19
78229;BME280;74448;49.082;9.152;2024-01-30T10:43:31;100801.44;;;4.95;61.68
78229;BME280;74448;49.082;9.152;2024-01-30T10:46:10;100797.13;;;4.92;61.59
78229;BME280;74448;49.082;9.152;2024-01-30T10:48:42;100801.44;;;4.95;61.74
78229;BME280;74448;49.082;9.152;2024-01-30T10:51:10;100811.06;;;4.94;61.30
78229;BME280;74448;49.082;9.152;2024-01-30T10:53:38;100807.53;;;4.95;61.76
78229;BME280;74448;49.082;9.152;2024-01-30T10:56:05;100800.56;;;4.94;61.74
78229;BME280;74448;49.082;9.152;2024-01-30T10:58:33;100807.53;;;4.95;61.35
78229;BME280;74448;49.082;9.152;2024-01-30T11:00:59;100786.06;;;4.83;61.37
78229;BME280;74448;49.082;9.152;2024-01-30T11:03:26;100797.91;;;4.96;61.90
78229;BME280;74448;49.082;9.152;2024-01-30T11:05:53;100797.91;;;4.96;62.12
78229;BME280;74448;49.082;9.152;2024-01-30T11:08:26;100801.44;;;4.95;61.66
78229;BME280;74448;49.082;9.152;2024-01-30T11:10:56;100805.72;;;4.97;61.31
78229;BME280;74448;49.082;9.152;2024-01-30T11:13:30;100794.38;;;4.97;61.69
78229;BME280;74448;49.082;9.152;2024-01-30T11:16:02;100797.03;;;4.95;62.04
78229;BME280;74448;49.082;9.152;2024-01-30T11:18:30;100804.91;;;4.95;61.56
78229;BME280;74448;49.082;9.152;2024-01-30T11:20:58;100810.97;;;4.97;61.51
78229;BME280;74448;49.082;9.152;2024-01-30T11:23:28;100802.22;;;4.97;61.45
78229;BME280;74448;49.082;9.152;2024-01-30T11:25:56;100806.59;;;4.98;61.22
78229;BME280;74448;49.082;9.152;2024-01-30T11:28:23;100798.75;;;4.96;61.04
78229;BME280;74448;49.082;9.152;2024-01-30T11:30:50;100793.47;;;4.98;62.10
78229;BME280;74448;49.082;9.152;2024-01-30T11:33:29;100791.72;;;4.98;61.20
78229;BME280;74448;49.082;9.152;2024-01-30T11:36:00;100775.38;;;4.90;61.17
78229;BME280;74448;49.082;9.152;2024-01-30T11:38:28;100788.19;;;4.99;61.17
78229;BME280;74448;49.082;9.152;2024-01-30T11:40:55;100776.00;;;4.98;61.98
78229;BME280;74448;49.082;9.152;2024-01-30T11:43:25;100778.56;;;5.00;61.41
78229;BME280;74448;49.082;9.152;2024-01-30T11:45:51;100763.06;;;4.92;61.87
78229;BME280;74448;49.082;9.152;2024-01-30T11:48:19;100774.16;;;5.00;61.42
78229;BME280;74448;49.082;9.152;2024-01-30T11:50:46;100779.41;;;5.00;62.08
78229;BME280;74448;49.082;9.152;2024-01-30T11:53:13;100767.16;;;5.01;61.49
78229;BME280;74448;49.082;9.152;2024-01-30T11:55:40;100768.94;;;5.00;61.29
78229;BME280;74448;49.082;9.152;2024-01-30T11:58:06;100765.41;;;5.02;61.05
78229;BME280;74448;49.082;9.152;2024-01-30T12:00:33;100761.06;;;5.00;61.30
78229;BME280;74448;49.082;9.152;2024-01-30T12:03:01;100758.41;;;5.02;61.78
78229;BME280;74448;49.082;9.152;2024-01-30T12:05:29;100761.03;;;5.02;61.54
78229;BME280;74448;49.082;9.152;2024-01-30T12:07:56;100766.22;;;5.04;61.74
78229;BME280;74448;49.082;9.152;2024-01-30T12:10:28;100749.59;;;5.05;61.33
78229;BME280;74448;49.082;9.152;2024-01-30T12:12:56;100753.97;;;5.04;61.32
78229;BME280;74448;49.082;9.152;2024-01-30T12:15:24;100747.78;;;5.07;61.55
78229;BME280;74448;49.082;9.152;2024-01-30T12:17:50;100751.28;;;5.06;61.27
78229;BME280;74448;49.082;9.152;2024-01-30T12:20:18;100741.69;;;5.06;61.67
78229;BME280;74448;49.082;9.152;2024-01-30T12:22:49;100740.81;;;5.06;60.95
78229;BME280;74448;49.082;9.152;2024-01-30T12:25:17;100738.16;;;5.07;61.18
78229;BME280;74448;49.082;9.152;2024-01-30T12:27:46;100746.03;;;5.07;61.26
78229;BME280;74448;49.082;9.152;2024-01-30T12:30:18;100729.63;;;5.00;61.63
78229;BME280;74448;49.082;9.152;2024-01-30T12:32:45;100731.34;;;5.02;61.54
78229;BME280;74448;49.082;9.152;2024-01-30T12:35:17;100738.16;;;5.07;61.27
78229;BME280;74448;49.082;9.152;2024-01-30T12:37:45;100739.94;;;5.07;61.21
78229;BME280;74448;49.082;9.152;2024-01-30T12:40:13;100743.44;;;5.06;61.06
78229;BME280;74448;49.082;9.152;2024-01-30T12:42:41;100751.22;;;5.09;61.03
78229;BME280;74448;49.082;9.152;2024-01-30T12:45:09;100740.72;;;5.09;61.43
78229;BME280;74448;49.082;9.152;2024-01-30T12:47:36;100739.03;;;5.08;61.64
78229;BME280;74448;49.082;9.152;2024-01-30T12:50:03;100739.09;;;5.05;61.18
78229;BME280;74448;49.082;9.152;2024-01-30T12:52:30;100734.56;;;5.10;61.00
78229;BME280;74448;49.082;9.152;2024-01-30T12:54:57;100732.84;;;5.10;61.67
78229;BME280;74448;49.082;9.152;2024-01-30T12:57:25;100726.91;;;5.04;61.65
78229;BME280;74448;49.082;9.152;2024-01-30T12:59:51;100735.47;;;5.09;61.27